createdAt,value
2024-04-11T00:01:55.591Z,99.90
2024-04-11T00:06:52.032Z,99.90
2024-04-11T00:11:57.472Z,99.90
2024-04-11T00:17:03.062Z,99.90
2024-04-11T00:22:10.160Z,99.90
2024-04-11T00:27:15.480Z,99.90
2024-04-11T00:32:21.167Z,99.90
2024-04-11T00:37:27.101Z,99.90
2024-04-11T00:42:33.376Z,99.90
2024-04-11T00:47:41.345Z,99.90
2024-04-11T00:52:49.182Z,99.90
2024-04-11T00:57:55.055Z,99.90
2024-04-11T01:03:00.586Z,99.90
2024-04-11T01:08:09.056Z,99.90
2024-04-11T01:13:14.362Z,99.90
2024-04-11T01:18:21.500Z,99.90
2024-04-11T01:23:27.368Z,99.90
2024-04-11T01:28:33.248Z,99.90
2024-04-11T01:33:39.514Z,99.90
2024-04-11T01:38:46.753Z,99.90
2024-04-11T01:43:52.144Z,99.90
2024-04-11T01:48:57.547Z,99.90
2024-04-11T01:54:03.084Z,99.90
2024-04-11T01:59:09.565Z,99.90
2024-04-11T02:04:15.472Z,99.90
2024-04-11T02:09:22.506Z,99.90
2024-04-11T02:14:28.637Z,99.90
2024-04-11T02:19:34.145Z,99.90
2024-04-11T02:24:39.753Z,99.90
2024-04-11T02:29:46.724Z,99.90
2024-04-11T02:34:52.918Z,99.90
2024-04-11T02:39:58.560Z,99.90
2024-04-11T02:45:04.303Z,99.90
2024-04-11T02:50:12.916Z,99.90
2024-04-11T02:55:18.826Z,99.90
2024-04-11T03:00:24.289Z,99.90
2024-04-11T03:05:30.923Z,99.90
2024-04-11T03:10:38.467Z,99.90
2024-04-11T03:15:43.895Z,99.90
2024-04-11T03:20:56.327Z,99.90
2024-04-11T03:26:01.944Z,99.90
2024-04-11T03:31:09.759Z,99.90
2024-04-11T03:36:15.535Z,99.90
2024-04-11T03:41:21.641Z,99.90
2024-04-11T03:46:27.300Z,99.90
2024-04-11T03:51:34.675Z,99.90
2024-04-11T03:56:40.792Z,99.90
2024-04-11T04:01:48.284Z,99.90
2024-04-11T04:06:53.977Z,99.90
2024-04-11T04:11:59.626Z,99.90
2024-04-11T04:17:05.174Z,99.90
2024-04-11T04:22:12.122Z,99.90
2024-04-11T04:27:18.481Z,99.90
2024-04-11T04:32:24.185Z,99.90
2024-04-11T04:37:31.724Z,99.90
2024-04-11T04:42:37.178Z,99.90
2024-04-11T04:47:42.747Z,99.90
2024-04-11T04:52:49.687Z,99.90
2024-04-11T04:57:56.422Z,99.90
2024-04-11T05:03:08.620Z,99.90
2024-04-11T05:08:15.973Z,99.90
2024-04-11T05:13:22.948Z,99.90
2024-04-11T05:18:28.775Z,99.90
2024-04-11T05:23:34.487Z,99.90
2024-04-11T05:28:42.339Z,99.90
2024-04-11T05:33:50.072Z,99.90
2024-04-11T05:38:55.961Z,99.90
2024-04-11T05:44:02.374Z,99.90
2024-04-11T05:49:08.335Z,99.90
2024-04-11T05:54:14.300Z,99.90
2024-04-11T05:59:21.241Z,99.90
2024-04-11T06:04:27.411Z,99.90
2024-04-11T06:09:34.840Z,99.90
2024-04-11T06:14:40.502Z,99.70
2024-04-11T06:19:46.551Z,99.00
2024-04-11T06:24:52.074Z,98.80
2024-04-11T06:29:59.121Z,98.50
2024-04-11T06:35:06.047Z,97.70
2024-04-11T06:40:13.987Z,97.10
2024-04-11T06:45:22.104Z,97.30
2024-04-11T06:50:28.048Z,96.70
2024-04-11T06:55:33.562Z,96.30
2024-04-11T07:00:38.968Z,94.50
2024-04-11T07:05:56.694Z,93.60
2024-04-11T07:11:05.742Z,92.80
2024-04-11T07:16:12.899Z,91.90
2024-04-11T07:21:18.962Z,91.40
2024-04-11T07:26:25.213Z,91.40
2024-04-11T07:31:30.911Z,91.10
2024-04-11T07:36:40.756Z,89.60
2024-04-11T07:41:47.537Z,88.50
2024-04-11T07:47:01.694Z,84.90
2024-04-11T07:52:03.022Z,84.00
2024-04-11T07:57:09.653Z,82.50
2024-04-11T08:02:16.366Z,82.10
2024-04-11T08:07:22.213Z,80.40
2024-04-11T08:12:28.767Z,79.70
2024-04-11T08:17:37.844Z,78.80
2024-04-11T08:22:43.691Z,76.90
2024-04-11T08:27:50.247Z,75.60
2024-04-11T08:32:57.228Z,75.10
2024-04-11T08:38:04.545Z,74.40
2024-04-11T08:43:10.712Z,75.40
2024-04-11T08:48:16.956Z,74.60
2024-04-11T08:53:25.423Z,73.00
2024-04-11T08:58:31.092Z,73.20
2024-04-11T09:03:37.834Z,72.20
2024-04-11T09:08:43.366Z,71.80
2024-04-11T09:13:49.013Z,72.90
2024-04-11T09:19:06.170Z,72.90
2024-04-11T09:24:13.934Z,71.40
2024-04-11T09:29:22.333Z,71.10
2024-04-11T09:34:31.336Z,71.10
2024-04-11T09:39:50.106Z,70.60
2024-04-11T09:44:57.299Z,70.40
2024-04-11T09:50:06.734Z,69.90
2024-04-11T09:55:15.165Z,68.70
2024-04-11T10:00:22.254Z,68.60
2024-04-11T10:05:37.595Z,68.20
2024-04-11T10:10:44.230Z,68.00
2024-04-11T10:15:51.129Z,68.30
2024-04-11T10:21:03.148Z,67.90
2024-04-11T10:26:09.493Z,68.00
2024-04-11T10:31:18.322Z,67.50
2024-04-11T10:36:25.669Z,67.30
2024-04-11T10:41:34.253Z,66.10
2024-04-11T10:46:41.555Z,66.80
2024-04-11T10:51:48.379Z,65.60
2024-04-11T10:56:55.806Z,65.10
2024-04-11T11:02:06.843Z,64.70
2024-04-11T11:07:12.233Z,64.80
2024-04-11T11:12:19.592Z,64.20
2024-04-11T11:17:27.050Z,64.20
2024-04-11T11:22:34.702Z,64.20
2024-04-11T11:27:40.593Z,64.10
2024-04-11T11:32:46.121Z,64.10
2024-04-11T11:37:51.918Z,64.30
2024-04-11T11:42:58.559Z,64.50
2024-04-11T11:48:05.787Z,65.20
2024-04-11T11:53:27.021Z,65.10
2024-04-11T11:58:32.440Z,65.40
2024-04-11T12:03:39.733Z,65.20
2024-04-11T12:08:46.986Z,66.30
2024-04-11T12:13:57.208Z,66.60
2024-04-11T12:19:02.962Z,66.90
2024-04-11T12:24:10.439Z,66.80
2024-04-11T12:29:17.465Z,66.70
2024-04-11T12:34:22.918Z,66.80
2024-04-11T12:39:35.454Z,67.70
2024-04-11T12:44:41.164Z,65.40
2024-04-11T12:49:49.431Z,65.50
2024-04-11T12:54:57.421Z,66.30
2024-04-11T13:00:05.850Z,67.00
2024-04-11T13:05:16.074Z,66.20
2024-04-11T13:10:21.620Z,66.20
2024-04-11T13:15:28.579Z,67.30
2024-04-11T13:20:35.852Z,67.10
2024-04-11T13:25:44.174Z,65.10
2024-04-11T13:30:49.708Z,66.40
2024-04-11T13:35:55.295Z,67.60
2024-04-11T13:41:17.533Z,68.30
2024-04-11T13:46:24.742Z,69.00
2024-04-11T13:51:31.686Z,69.70
2024-04-11T13:56:39.971Z,70.10
2024-04-11T14:01:47.239Z,70.60
2024-04-11T14:07:11.952Z,71.10
2024-04-11T14:12:18.421Z,71.80
2024-04-11T14:22:35.672Z,72.60
2024-04-11T14:27:43.000Z,73.50
2024-04-11T14:33:07.356Z,72.70
2024-04-11T14:38:12.693Z,73.70
2024-04-11T14:43:19.542Z,74.00
2024-04-11T14:48:26.670Z,74.50
2024-04-11T14:53:34.375Z,74.70
2024-04-11T14:58:41.458Z,74.90
2024-04-11T15:03:47.156Z,75.00
2024-04-11T15:08:54.177Z,75.50
2024-04-11T15:14:01.159Z,76.30
2024-04-11T15:19:08.020Z,76.80
2024-04-11T15:24:15.307Z,76.90
2024-04-11T15:29:22.955Z,77.50
2024-04-11T15:34:30.221Z,77.70
2024-04-11T15:39:35.681Z,78.10
2024-04-11T15:44:42.763Z,79.10
2024-04-11T15:49:49.774Z,79.40
2024-04-11T15:54:57.577Z,79.90
2024-04-11T16:00:05.060Z,80.20
2024-04-11T16:05:13.395Z,80.20
2024-04-11T16:10:20.258Z,80.10
2024-04-11T16:15:27.219Z,80.40
2024-04-11T16:20:33.107Z,80.90
2024-04-11T16:25:40.550Z,81.20
2024-04-11T16:31:05.643Z,81.10
2024-04-11T16:36:12.695Z,81.90
2024-04-11T16:41:20.393Z,82.50
2024-04-11T16:46:27.717Z,83.70
2024-04-11T16:51:34.762Z,84.50
2024-04-11T16:56:40.693Z,84.50
2024-04-11T17:01:46.288Z,85.00
2024-04-11T17:06:52.010Z,86.00
2024-04-11T17:11:57.686Z,87.30
2024-04-11T17:17:16.048Z,88.50
2024-04-11T17:22:24.666Z,89.70
2024-04-11T17:27:30.062Z,90.20
2024-04-11T17:32:42.281Z,90.60
2024-04-11T17:37:49.930Z,91.10
2024-04-11T17:42:56.954Z,91.60
2024-04-11T17:48:02.678Z,92.00
2024-04-11T17:53:08.543Z,92.40
2024-04-11T17:58:15.558Z,92.90
2024-04-11T18:03:22.027Z,93.40
2024-04-11T18:08:27.651Z,93.90
2024-04-11T18:13:34.976Z,94.50
2024-04-11T18:18:42.367Z,95.30
2024-04-11T18:23:49.626Z,96.10
2024-04-11T18:28:56.731Z,97.00
2024-04-11T18:34:04.123Z,97.80
2024-04-11T18:39:11.253Z,98.80
2024-04-11T18:44:21.395Z,99.60
2024-04-11T18:49:29.446Z,99.90
2024-04-11T18:54:35.379Z,99.90
2024-04-11T18:59:42.457Z,99.90
2024-04-11T19:04:48.159Z,99.90
2024-04-11T19:10:04.681Z,99.90
2024-04-11T19:15:12.233Z,99.90
2024-04-11T19:20:22.753Z,99.90
2024-04-11T19:25:29.561Z,99.90
2024-04-11T19:30:38.173Z,99.90
2024-04-11T19:35:45.937Z,99.90
2024-04-11T19:40:51.524Z,99.90
2024-04-11T19:45:57.144Z,99.90
2024-04-11T19:51:02.673Z,99.90
2024-04-11T19:56:13.777Z,99.90
2024-04-11T20:01:21.581Z,99.90
2024-04-11T20:06:28.590Z,99.90
2024-04-11T20:11:36.151Z,99.90
2024-04-11T20:16:41.879Z,99.90
2024-04-11T20:21:48.869Z,99.90
2024-04-11T20:26:55.102Z,99.90
2024-04-11T20:32:05.810Z,99.90
2024-04-11T20:37:12.809Z,99.90
2024-04-11T20:42:19.758Z,99.90
2024-04-11T20:47:27.069Z,99.90
2024-04-11T20:52:50.543Z,99.90
2024-04-11T20:58:13.966Z,99.90
2024-04-11T21:03:37.148Z,99.90
2024-04-11T21:09:00.687Z,99.90
2024-04-11T21:14:24.089Z,99.90
2024-04-11T21:19:47.505Z,99.90
2024-04-11T21:25:13.732Z,99.90
2024-04-11T21:30:37.525Z,99.90
2024-04-11T21:35:44.678Z,99.90
2024-04-11T21:40:51.601Z,99.90
2024-04-11T21:45:58.607Z,99.90
2024-04-11T21:51:05.688Z,99.90
2024-04-11T21:56:13.644Z,99.90
2024-04-11T22:01:19.682Z,99.90
2024-04-11T22:06:26.340Z,99.90
2024-04-11T22:11:32.709Z,99.90
2024-04-11T22:16:39.168Z,99.90
2024-04-11T22:21:46.154Z,99.90
2024-04-11T22:26:51.580Z,99.90
2024-04-11T22:31:57.016Z,99.90
2024-04-11T22:37:03.032Z,99.90
2024-04-11T22:42:10.726Z,99.90
2024-04-11T22:47:17.866Z,99.90
2024-04-11T22:52:25.347Z,99.90
2024-04-11T22:57:30.775Z,99.90
2024-04-11T23:02:39.481Z,99.90
2024-04-11T23:07:46.509Z,99.90
2024-04-11T23:12:53.526Z,99.90
2024-04-11T23:18:00.902Z,99.90
2024-04-11T23:23:10.472Z,99.90
2024-04-11T23:28:16.059Z,99.90
2024-04-11T23:33:25.443Z,99.90
2024-04-11T23:38:30.888Z,99.90
2024-04-11T23:43:46.428Z,99.90
2024-04-11T23:48:51.851Z,99.90
2024-04-11T23:53:58.396Z,99.90
2024-04-11T23:59:08.285Z,99.90
